Time;durP1;ratioP1;P1;durP2;ratioP2;P2;SDS_P1;SDS_P2;PMS_P1;PMS_P2;Temp;Humidity;BMP_temperature;BMP_pressure;BME280_temperature;BME280_humidity;BME280_pressure;Samples;Min_cycle;Max_cycle;Signal;HPM_P1;HPM_P2
2022/10/08 00:01:28;;;;;;;10.77;5.17;;;9.00;99.90;;;;;;5057277;28;20597;-62
2022/10/08 00:03:56;;;;;;;11.73;4.80;;;9.00;99.90;;;;;;5058039;28;20462;-62
2022/10/08 00:06:31;;;;;;;13.80;5.73;;;9.10;99.90;;;;;;5043580;28;20484;-62
2022/10/08 00:09:03;;;;;;;16.43;7.83;;;9.00;99.10;;;;;;5057479;28;20458;-62
2022/10/08 00:11:32;;;;;;;16.70;6.53;;;9.00;94.20;;;;;;5058098;28;20816;-62
2022/10/08 00:14:03;;;;;;;9.57;5.00;;;9.00;94.40;;;;;;5057507;28;20465;-62
2022/10/08 00:16:34;;;;;;;8.33;5.03;;;9.10;85.50;;;;;;5057215;28;20914;-59
2022/10/08 00:19:04;;;;;;;9.17;5.00;;;9.00;63.90;;;;;;5057276;28;20462;-62
2022/10/08 00:21:36;;;;;;;10.33;6.20;;;9.10;76.00;;;;;;5057582;28;20469;-62
2022/10/08 00:24:05;;;;;;;11.67;5.50;;;9.10;64.50;;;;;;5057723;28;20467;-62
2022/10/08 00:26:37;;;;;;;11.80;5.50;;;9.10;17.90;;;;;;5057530;28;20718;-62
2022/10/08 00:29:06;;;;;;;7.17;4.67;;;9.10;4.90;;;;;;5056927;28;20782;-62
2022/10/08 00:31:39;;;;;;;11.73;5.10;;;9.20;1.00;;;;;;5057017;28;20429;-62
2022/10/08 00:34:11;;;;;;;12.97;5.17;;;9.10;1.00;;;;;;5057634;28;20888;-62
2022/10/08 00:36:40;;;;;;;11.77;5.30;;;9.20;1.00;;;;;;5057122;28;20556;-62
2022/10/08 00:39:11;;;;;;;8.60;4.63;;;9.20;1.00;;;;;;5056564;28;20474;-63
2022/10/08 00:41:39;;;;;;;10.07;5.27;;;9.20;1.00;;;;;;5055958;28;20516;-62
2022/10/08 00:44:40;;;;;;;9.23;4.50;;;9.20;1.00;;;;;;5052637;28;20466;-62
2022/10/08 00:47:18;;;;;;;8.27;3.93;;;9.30;1.00;;;;;;5057097;28;20461;-62
2022/10/08 00:49:47;;;;;;;14.10;4.83;;;9.30;1.00;;;;;;5056713;28;20469;-62
2022/10/08 00:52:18;;;;;;;8.93;4.80;;;9.30;1.00;;;;;;5056276;28;20469;-63
2022/10/08 00:54:47;;;;;;;9.50;5.00;;;9.40;1.00;;;;;;5056968;28;20791;-62
2022/10/08 00:57:19;;;;;;;8.87;4.50;;;9.40;1.00;;;;;;5057494;28;20462;-62
2022/10/08 00:59:49;;;;;;;9.53;4.30;;;9.40;1.00;;;;;;5056701;28;20469;-61
2022/10/08 01:02:18;;;;;;;10.50;4.30;;;9.40;1.00;;;;;;5056708;28;20527;-62
2022/10/08 01:04:46;;;;;;;12.50;4.63;;;9.50;1.00;;;;;;5056942;28;20462;-62
2022/10/08 01:07:22;;;;;;;11.43;4.97;;;9.50;1.00;;;;;;5057027;28;20565;-63
2022/10/08 01:10:01;;;;;;;9.13;4.73;;;9.50;1.00;;;;;;5056704;28;20809;-62
2022/10/08 01:12:40;;;;;;;11.27;4.50;;;9.50;1.00;;;;;;5056006;28;20490;-63
2022/10/08 01:15:16;;;;;;;7.83;3.93;;;9.50;1.00;;;;;;5056251;28;20547;-63
2022/10/08 01:17:55;;;;;;;9.60;4.80;;;9.50;1.00;;;;;;5056171;28;20466;-63
2022/10/08 01:20:44;;;;;;;8.60;4.40;;;9.50;1.00;;;;;;5056049;28;20468;-63
2022/10/08 01:23:32;;;;;;;8.40;5.30;;;9.50;1.00;;;;;;5056788;28;20470;-62
2022/10/08 01:26:22;;;;;;;10.30;4.87;;;9.50;1.00;;;;;;5056497;28;20457;-63
2022/10/08 01:28:56;;;;;;;11.20;4.10;;;9.50;1.00;;;;;;5055929;28;20476;-63
2022/10/08 01:31:28;;;;;;;9.00;4.40;;;9.60;1.00;;;;;;5056617;28;20765;-63
2022/10/08 01:34:01;;;;;;;11.30;4.40;;;9.60;1.00;;;;;;5056800;28;20475;-63
2022/10/08 01:36:37;;;;;;;8.17;4.30;;;9.70;1.00;;;;;;5060119;28;20516;-63
2022/10/08 01:39:09;;;;;;;8.57;4.20;;;9.60;1.00;;;;;;5060089;28;20788;-63
2022/10/08 01:41:37;;;;;;;12.53;4.40;;;9.60;1.00;;;;;;5059285;28;20464;-62
2022/10/08 01:44:11;;;;;;;8.33;4.33;;;9.60;1.00;;;;;;5060842;28;20463;-62
2022/10/08 01:46:42;;;;;;;5.87;3.90;;;9.60;1.00;;;;;;5060696;28;20468;-60
2022/10/08 01:49:12;;;;;;;12.20;4.87;;;9.50;1.00;;;;;;5060842;28;20504;-63
2022/10/08 01:51:44;;;;;;;9.33;5.17;;;9.50;1.00;;;;;;5060650;28;20433;-62
2022/10/08 01:54:15;;;;;;;17.77;4.33;;;9.50;1.00;;;;;;5060105;28;20465;-62
2022/10/08 01:56:45;;;;;;;10.93;4.10;;;9.50;1.00;;;;;;5060264;28;20580;-62
2022/10/08 01:59:19;;;;;;;7.90;4.33;;;9.50;1.00;;;;;;5060519;28;20462;-61
2022/10/08 02:01:54;;;;;;;9.20;4.00;;;9.50;1.00;;;;;;5060848;28;20892;-62
2022/10/08 02:04:35;;;;;;;8.40;4.30;;;9.60;1.00;;;;;;5059837;28;20742;-62
2022/10/08 02:07:07;;;;;;;14.33;6.30;;;9.60;1.00;;;;;;5060230;28;20458;-62
2022/10/08 02:09:38;;;;;;;12.73;5.37;;;9.60;1.00;;;;;;5059816;28;20553;-62
2022/10/08 02:12:06;;;;;;;8.77;4.80;;;9.60;1.00;;;;;;5060170;28;20769;-62
2022/10/08 02:14:38;;;;;;;10.17;4.20;;;9.60;1.00;;;;;;5059588;28;20472;-62
2022/10/08 02:17:19;;;;;;;7.33;4.30;;;9.60;1.00;;;;;;5059868;28;20458;-62
2022/10/08 02:19:54;;;;;;;11.73;4.70;;;9.70;1.00;;;;;;5059686;28;20443;-61
2022/10/08 02:22:25;;;;;;;8.30;4.47;;;9.80;1.00;;;;;;5060227;28;20775;-62
2022/10/08 02:24:56;;;;;;;7.33;4.17;;;9.80;1.00;;;;;;5058613;28;20465;-62
2022/10/08 02:27:27;;;;;;;10.10;4.60;;;9.80;1.00;;;;;;5058979;28;20465;-62
2022/10/08 02:30:06;;;;;;;9.20;3.83;;;9.80;1.00;;;;;;5039930;28;20491;-62
2022/10/08 02:32:37;;;;;;;11.07;4.77;;;9.80;1.00;;;;;;5039983;28;20467;-62
2022/10/08 02:35:11;;;;;;;11.53;4.30;;;9.90;1.00;;;;;;5040432;28;20466;-62
2022/10/08 02:37:43;;;;;;;7.87;4.47;;;9.90;1.00;;;;;;5059956;28;20466;-62
2022/10/08 02:40:13;;;;;;;8.63;4.43;;;9.80;1.00;;;;;;5058340;28;20468;-62
2022/10/08 02:42:46;;;;;;;12.00;5.03;;;9.80;1.00;;;;;;5059832;28;20468;-61
2022/10/08 02:45:34;;;;;;;8.10;4.27;;;9.90;1.00;;;;;;5059037;28;20439;-63
2022/10/08 02:48:08;;;;;;;9.40;3.63;;;10.00;1.00;;;;;;5059142;28;20490;-62
2022/10/08 02:50:39;;;;;;;12.47;4.50;;;10.00;1.00;;;;;;5058851;28;20440;-61
2022/10/08 02:53:06;;;;;;;7.80;4.73;;;10.00;1.00;;;;;;5059528;28;20932;-62
2022/10/08 02:55:41;;;;;;;12.53;4.90;;;10.00;1.00;;;;;;5058892;28;20460;-63
2022/10/08 02:58:25;;;;;;;8.97;4.87;;;10.10;1.00;;;;;;5059524;28;20472;-62
2022/10/08 03:00:59;;;;;;;9.00;4.40;;;10.10;1.00;;;;;;5058681;28;20462;-62
2022/10/08 03:03:33;;;;;;;10.90;4.77;;;10.10;1.00;;;;;;5059347;28;20464;-61
2022/10/08 03:06:04;;;;;;;11.20;4.43;;;10.10;1.00;;;;;;5058907;28;20465;-62
2022/10/08 03:08:36;;;;;;;13.10;4.17;;;10.10;1.00;;;;;;5059662;28;20444;-62
2022/10/08 03:11:05;;;;;;;14.03;4.70;;;10.10;1.00;;;;;;5058783;28;20469;-62
2022/10/08 03:13:39;;;;;;;9.80;4.93;;;10.10;1.00;;;;;;5058949;28;20485;-62
2022/10/08 03:16:12;;;;;;;7.53;4.63;;;10.10;1.00;;;;;;5060010;28;20500;-62
2022/10/08 03:18:41;;;;;;;8.13;4.50;;;10.20;1.00;;;;;;5058780;28;20906;-62
2022/10/08 03:21:13;;;;;;;11.63;4.40;;;10.20;1.00;;;;;;5058715;28;20565;-62
2022/10/08 03:23:40;;;;;;;15.63;5.30;;;10.20;1.00;;;;;;5051779;28;20468;-62
2022/10/08 03:26:07;;;;;;;8.97;4.40;;;10.20;1.00;;;;;;5055239;28;20459;-62
2022/10/08 03:28:35;;;;;;;9.53;4.23;;;10.20;1.00;;;;;;5059388;28;20466;-62
2022/10/08 03:31:05;;;;;;;12.13;5.30;;;10.30;1.00;;;;;;5058690;28;20515;-62
2022/10/08 03:33:34;;;;;;;8.67;4.20;;;10.30;1.00;;;;;;5059181;28;20459;-62
2022/10/08 03:36:04;;;;;;;18.23;5.67;;;10.40;1.00;;;;;;5059560;28;20494;-62
2022/10/08 03:38:34;;;;;;;9.23;4.00;;;10.40;1.00;;;;;;5058511;28;20472;-61
2022/10/08 03:41:01;;;;;;;8.30;4.63;;;10.50;1.00;;;;;;5057813;28;20473;-63
2022/10/08 03:43:32;;;;;;;12.03;5.37;;;10.50;1.00;;;;;;5058635;28;20899;-64
2022/10/08 03:45:59;;;;;;;11.20;3.80;;;10.60;1.00;;;;;;5058486;28;20458;-63
2022/10/08 03:48:27;;;;;;;9.60;4.00;;;10.60;1.00;;;;;;5058588;28;20753;-62
2022/10/08 03:50:58;;;;;;;10.43;4.23;;;10.70;1.00;;;;;;5058348;28;20464;-63
2022/10/08 03:53:26;;;;;;;8.03;4.00;;;10.80;99.90;;;;;;5057879;28;20480;-63
2022/10/08 03:55:54;;;;;;;10.37;3.80;;;10.80;99.90;;;;;;5058383;28;20863;-64
2022/10/08 03:58:21;;;;;;;8.40;4.33;;;10.80;99.90;;;;;;5055970;28;20443;-64
2022/10/08 04:00:57;;;;;;;10.97;4.33;;;10.80;1.00;;;;;;5052957;28;20462;-63
2022/10/08 04:03:25;;;;;;;6.60;3.90;;;10.90;1.00;;;;;;5056219;28;20805;-61
2022/10/08 04:05:52;;;;;;;12.83;4.53;;;10.90;81.10;;;;;;5056668;28;20553;-64
2022/10/08 04:08:21;;;;;;;9.23;4.90;;;10.90;99.90;;;;;;5056467;28;20746;-64
2022/10/08 04:10:49;;;;;;;11.57;5.93;;;10.80;99.90;;;;;;5056053;28;20461;-64
2022/10/08 04:13:16;;;;;;;9.20;5.00;;;10.80;99.90;;;;;;5055751;28;20495;-64
2022/10/08 04:15:46;;;;;;;13.90;6.40;;;10.80;99.90;;;;;;5052803;28;20463;-64
2022/10/08 04:18:13;;;;;;;10.97;4.17;;;10.80;76.80;;;;;;5056890;28;20447;-64
2022/10/08 04:20:41;;;;;;;10.77;4.90;;;10.80;99.90;;;;;;5055949;28;20439;-64
2022/10/08 04:23:09;;;;;;;9.23;5.60;;;10.70;99.90;;;;;;5055619;28;20463;-64
2022/10/08 04:25:37;;;;;;;13.20;4.67;;;10.70;99.90;;;;;;5056084;28;20469;-66
2022/10/08 04:28:05;;;;;;;10.43;5.00;;;10.60;99.90;;;;;;5055681;28;20454;-65
2022/10/08 04:30:33;;;;;;;12.30;5.40;;;10.60;99.90;;;;;;5056024;28;20731;-65
2022/10/08 04:33:02;;;;;;;13.30;5.00;;;10.70;99.90;;;;;;5057186;28;20466;-65
2022/10/08 04:35:29;;;;;;;13.00;5.50;;;10.70;99.90;;;;;;5057240;28;20503;-65
2022/10/08 04:37:56;;;;;;;8.67;4.73;;;10.70;99.90;;;;;;5057501;28;20520;-65
2022/10/08 04:40:23;;;;;;;11.17;5.37;;;10.70;99.90;;;;;;5055774;28;20470;-65
2022/10/08 04:42:52;;;;;;;11.13;4.60;;;10.70;99.90;;;;;;5056685;28;20550;-65
2022/10/08 04:45:19;;;;;;;13.43;5.63;;;10.70;99.90;;;;;;5056613;28;20469;-65
2022/10/08 04:47:47;;;;;;;12.90;5.73;;;10.70;99.90;;;;;;5051000;28;20461;-65
2022/10/08 04:50:14;;;;;;;9.87;5.10;;;10.70;99.90;;;;;;5054850;28;20466;-64
2022/10/08 04:52:41;;;;;;;10.43;5.27;;;10.60;99.90;;;;;;5056190;28;20913;-65
2022/10/08 04:55:10;;;;;;;15.47;5.47;;;10.70;99.90;;;;;;5056798;28;20462;-66
2022/10/08 04:57:37;;;;;;;10.27;5.60;;;10.60;99.90;;;;;;5054902;28;20765;-65
2022/10/08 05:00:08;;;;;;;12.20;5.80;;;10.70;99.90;;;;;;5049793;28;20513;-65
2022/10/08 05:02:35;;;;;;;11.03;5.00;;;10.70;99.90;;;;;;5055872;28;20816;-65
2022/10/08 05:05:02;;;;;;;10.70;5.87;;;10.70;99.90;;;;;;5051009;28;20762;-65
2022/10/08 05:07:29;;;;;;;10.90;5.70;;;10.60;99.90;;;;;;5055588;28;20884;-64
2022/10/08 05:09:57;;;;;;;9.47;6.10;;;10.70;99.90;;;;;;5055188;28;20481;-65
2022/10/08 05:12:24;;;;;;;11.03;6.67;;;10.70;99.90;;;;;;5055216;28;20484;-65
2022/10/08 05:14:51;;;;;;;9.57;6.90;;;10.70;99.90;;;;;;5051078;28;20458;-65
2022/10/08 05:17:20;;;;;;;12.30;7.30;;;10.70;99.90;;;;;;5054797;28;20492;-65
2022/10/08 05:19:47;;;;;;;11.47;6.63;;;10.80;99.90;;;;;;5055168;28;20508;-65
2022/10/08 05:22:14;;;;;;;13.03;6.90;;;10.70;99.90;;;;;;5054964;28;20440;-65
2022/10/08 05:24:42;;;;;;;10.03;6.73;;;10.70;99.90;;;;;;5051383;28;20954;-65
2022/10/08 05:27:09;;;;;;;12.60;8.30;;;10.70;99.90;;;;;;5054133;28;20769;-65
2022/10/08 05:29:36;;;;;;;18.97;8.40;;;10.70;99.90;;;;;;5055239;28;20490;-65
2022/10/08 05:32:04;;;;;;;10.90;7.17;;;10.60;99.90;;;;;;5055458;28;20459;-65
2022/10/08 05:34:33;;;;;;;13.03;7.27;;;10.70;99.90;;;;;;5055406;28;20462;-65
2022/10/08 05:37:02;;;;;;;16.43;8.60;;;10.70;99.90;;;;;;5054841;28;20563;-65
2022/10/08 05:39:37;;;;;;;10.23;7.30;;;10.70;99.90;;;;;;5054449;28;20461;-65
2022/10/08 05:42:04;;;;;;;10.63;7.50;;;10.70;99.90;;;;;;5055649;28;20461;-65
2022/10/08 05:44:31;;;;;;;11.53;7.23;;;10.80;99.90;;;;;;5055629;28;20756;-64
2022/10/08 05:46:59;;;;;;;11.80;7.17;;;10.80;99.90;;;;;;5048506;28;20454;-66
2022/10/08 05:49:26;;;;;;;11.07;7.80;;;10.90;99.90;;;;;;5055404;28;20468;-66
2022/10/08 05:51:58;;;;;;;9.03;7.73;;;10.90;99.90;;;;;;5050012;28;20759;-66
2022/10/08 05:54:26;;;;;;;19.33;8.50;;;10.90;99.90;;;;;;5055189;28;20879;-66
2022/10/08 05:56:53;;;;;;;13.03;7.20;;;10.90;99.90;;;;;;5055820;28;20946;-66
2022/10/08 05:59:22;;;;;;;9.83;8.63;;;10.90;99.90;;;;;;5055777;28;20775;-66
2022/10/08 06:01:50;;;;;;;9.60;8.47;;;10.90;99.90;;;;;;5055891;28;20445;-66
2022/10/08 06:04:23;;;;;;;16.43;10.30;;;10.80;99.90;;;;;;5056298;28;20466;-66
2022/10/08 06:06:55;;;;;;;14.47;10.20;;;10.80;99.90;;;;;;5054692;28;20838;-65
2022/10/08 06:09:22;;;;;;;13.90;10.80;;;10.90;99.90;;;;;;5055229;28;20472;-66
2022/10/08 06:11:50;;;;;;;16.00;11.00;;;10.80;99.90;;;;;;5054763;28;20556;-65
2022/10/08 06:14:20;;;;;;;14.63;11.20;;;10.90;99.90;;;;;;5055214;28;20462;-66
2022/10/08 06:16:48;;;;;;;16.83;11.27;;;11.00;99.90;;;;;;5054842;28;20507;-65
2022/10/08 06:19:15;;;;;;;15.00;12.40;;;11.00;99.90;;;;;;5055488;28;20536;-65
2022/10/08 06:21:46;;;;;;;15.30;12.33;;;11.00;99.90;;;;;;5058793;28;20470;-65
2022/10/08 06:24:17;;;;;;;20.27;15.50;;;11.00;99.90;;;;;;5059361;28;20912;-65
2022/10/08 06:26:45;;;;;;;17.30;14.17;;;11.10;99.90;;;;;;5058977;28;20458;-65
2022/10/08 06:29:15;;;;;;;17.67;13.90;;;11.00;99.90;;;;;;5059448;28;20454;-65
2022/10/08 06:31:42;;;;;;;17.43;13.70;;;11.10;99.90;;;;;;5059450;28;20548;-65
2022/10/08 06:34:10;;;;;;;18.67;14.37;;;11.10;99.90;;;;;;5051398;28;20535;-65
2022/10/08 06:36:37;;;;;;;18.77;14.60;;;11.20;99.90;;;;;;5051869;28;20486;-65
2022/10/08 06:39:06;;;;;;;21.90;14.63;;;11.10;99.90;;;;;;5059147;28;20795;-65
2022/10/08 06:41:35;;;;;;;18.53;13.40;;;11.10;99.90;;;;;;5057688;28;20474;-65
2022/10/08 06:44:05;;;;;;;21.20;15.00;;;11.10;99.90;;;;;;5058372;28;20498;-65
2022/10/08 06:46:34;;;;;;;19.90;16.00;;;11.20;99.90;;;;;;5057273;28;20460;-65
2022/10/08 06:49:01;;;;;;;21.50;13.53;;;11.20;99.90;;;;;;5058739;28;20556;-66
2022/10/08 06:51:29;;;;;;;20.93;16.50;;;11.20;99.90;;;;;;5059675;28;20565;-66
2022/10/08 06:53:58;;;;;;;18.37;15.37;;;11.10;99.90;;;;;;5058493;28;20921;-66
2022/10/08 06:56:29;;;;;;;20.20;16.70;;;11.20;99.90;;;;;;5059554;28;21018;-65
2022/10/08 06:59:02;;;;;;;20.37;16.10;;;11.20;99.90;;;;;;5058772;28;20462;-66
2022/10/08 07:01:29;;;;;;;21.67;17.40;;;11.20;99.90;;;;;;5059217;28;20462;-66
2022/10/08 07:03:59;;;;;;;19.83;16.60;;;11.20;99.90;;;;;;5058802;28;20468;-66
2022/10/08 07:06:29;;;;;;;21.43;16.80;;;11.20;99.90;;;;;;5058350;28;20540;-65
2022/10/08 07:08:58;;;;;;;22.47;18.10;;;11.20;99.90;;;;;;5058449;28;20458;-65
2022/10/08 07:11:26;;;;;;;19.17;15.70;;;11.20;99.90;;;;;;5056368;28;20501;-65
2022/10/08 07:13:55;;;;;;;24.30;18.30;;;11.20;99.90;;;;;;5057709;28;20585;-65
2022/10/08 07:16:25;;;;;;;23.33;17.87;;;11.30;99.90;;;;;;5058717;28;20557;-65
2022/10/08 07:18:53;;;;;;;25.83;18.30;;;11.40;99.90;;;;;;5058914;28;20516;-66
2022/10/08 07:21:23;;;;;;;22.53;18.83;;;11.30;99.90;;;;;;5059006;28;20573;-66
2022/10/08 07:23:51;;;;;;;27.43;17.97;;;11.30;99.90;;;;;;5059206;28;20556;-65
2022/10/08 07:26:20;;;;;;;22.23;18.37;;;11.30;99.90;;;;;;5059233;28;20466;-66
2022/10/08 07:28:51;;;;;;;22.97;16.93;;;11.30;99.90;;;;;;5059239;28;20458;-65
2022/10/08 07:31:20;;;;;;;35.20;20.33;;;11.30;99.90;;;;;;5058312;28;20467;-65
2022/10/08 07:33:52;;;;;;;24.77;16.90;;;11.30;99.90;;;;;;5058722;28;20468;-65
2022/10/08 07:36:22;;;;;;;19.67;17.30;;;11.20;99.90;;;;;;5056863;28;20891;-65
2022/10/08 07:38:55;;;;;;;17.73;15.73;;;11.30;99.90;;;;;;5057602;28;20737;-65
2022/10/08 07:41:22;;;;;;;25.57;18.80;;;11.40;99.90;;;;;;5058054;28;20488;-65
2022/10/08 07:43:58;;;;;;;25.43;17.03;;;11.40;99.90;;;;;;5058479;28;20501;-65
2022/10/08 07:46:28;;;;;;;23.20;16.60;;;11.40;99.90;;;;;;5058567;28;20968;-65
2022/10/08 07:49:00;;;;;;;22.50;18.43;;;11.40;99.90;;;;;;5058559;28;20750;-65
2022/10/08 07:51:28;;;;;;;21.60;17.47;;;11.40;99.90;;;;;;5058519;28;20715;-66
2022/10/08 07:53:56;;;;;;;29.87;16.80;;;11.40;99.90;;;;;;5058504;28;20862;-65
2022/10/08 07:56:23;;;;;;;21.63;16.47;;;11.30;99.90;;;;;;5058123;28;20466;-66
2022/10/08 07:58:50;;;;;;;21.10;16.77;;;11.40;99.90;;;;;;5057980;28;20454;-65
2022/10/08 08:01:20;;;;;;;21.20;15.37;;;11.50;99.90;;;;;;5058510;28;20462;-65
2022/10/08 08:03:54;;;;;;;19.60;13.57;;;11.50;99.90;;;;;;5058610;28;20905;-66
2022/10/08 08:06:24;;;;;;;15.97;13.13;;;11.60;99.90;;;;;;5058250;28;20458;-65
2022/10/08 08:08:51;;;;;;;24.27;13.67;;;11.70;99.90;;;;;;5058196;28;20747;-66
2022/10/08 08:11:20;;;;;;;16.73;12.87;;;11.80;99.90;;;;;;5058040;28;20458;-65
2022/10/08 08:13:47;;;;;;;17.33;11.47;;;11.80;99.90;;;;;;5057580;28;20548;-66
2022/10/08 08:16:16;;;;;;;21.87;13.23;;;11.90;99.90;;;;;;5057681;28;20458;-66
2022/10/08 08:18:45;;;;;;;15.23;13.20;;;11.80;99.90;;;;;;5057726;28;20494;-66
2022/10/08 08:21:15;;;;;;;15.83;12.57;;;11.80;99.90;;;;;;5057981;28;20508;-66
2022/10/08 08:23:46;;;;;;;19.30;12.10;;;12.00;99.90;;;;;;5056884;28;20474;-66
2022/10/08 08:26:15;;;;;;;21.87;14.97;;;12.10;99.90;;;;;;5056993;28;20469;-66
2022/10/08 08:28:42;;;;;;;16.80;10.33;;;12.20;99.90;;;;;;5057960;28;20458;-67
2022/10/08 08:31:12;;;;;;;13.90;10.17;;;12.50;99.90;;;;;;5041795;28;20778;-66
2022/10/08 08:33:40;;;;;;;15.77;10.77;;;12.40;99.90;;;;;;5037590;28;20474;-67
2022/10/08 08:36:08;;;;;;;14.80;10.17;;;12.40;99.90;;;;;;5037672;28;20493;-66
2022/10/08 08:38:35;;;;;;;14.07;11.10;;;12.60;99.90;;;;;;5037160;28;20501;-66
2022/10/08 08:41:19;;;;;;;15.97;10.67;;;12.80;99.90;;;;;;5036483;28;20534;-66
2022/10/08 08:43:46;;;;;;;16.03;9.90;;;13.00;99.90;;;;;;5047618;28;20462;-65
2022/10/08 08:46:21;;;;;;;11.63;8.50;;;12.90;99.90;;;;;;5054527;28;20466;-65
2022/10/08 08:48:51;;;;;;;17.90;9.80;;;13.00;99.90;;;;;;5056733;28;20764;-65
2022/10/08 08:51:19;;;;;;;19.97;7.80;;;13.10;99.90;;;;;;5057290;28;20487;-65
2022/10/08 08:53:46;;;;;;;16.53;10.83;;;13.30;99.90;;;;;;5056703;28;20467;-65
2022/10/08 08:56:19;;;;;;;12.93;9.30;;;13.40;99.90;;;;;;5056065;28;20462;-66
2022/10/08 08:58:57;;;;;;;10.37;8.27;;;13.60;99.90;;;;;;5056944;28;20504;-67
2022/10/08 09:01:33;;;;;;;13.00;9.57;;;14.10;99.90;;;;;;5057234;28;20466;-66
2022/10/08 09:04:06;;;;;;;11.23;9.17;;;14.60;99.90;;;;;;5057175;28;20465;-66
2022/10/08 09:06:37;;;;;;;12.40;8.00;;;14.30;1.00;;;;;;5055135;28;20470;-65
2022/10/08 09:09:17;;;;;;;12.43;8.87;;;14.00;1.00;;;;;;5044511;28;20489;-66
2022/10/08 09:11:49;;;;;;;14.13;9.80;;;13.70;1.00;;;;;;5056331;28;20804;-65
2022/10/08 09:14:33;;;;;;;14.60;9.97;;;13.70;1.00;;;;;;5055700;28;20498;-65
2022/10/08 09:17:04;;;;;;;13.73;9.53;;;13.60;1.00;;;;;;5056118;28;20457;-65
2022/10/08 09:19:32;;;;;;;16.60;9.80;;;13.50;1.00;;;;;;5056579;28;20458;-65
2022/10/08 09:22:04;;;;;;;15.17;9.83;;;13.60;1.00;;;;;;5056527;28;20466;-65
2022/10/08 09:24:33;;;;;;;14.13;9.87;;;13.80;1.00;;;;;;5056329;28;20899;-65
2022/10/08 09:27:14;;;;;;;14.10;10.47;;;14.00;1.00;;;;;;5056817;28;20535;-65
2022/10/08 09:29:41;;;;;;;13.87;10.83;;;14.10;1.00;;;;;;5057059;28;20520;-65
2022/10/08 09:32:15;;;;;;;14.90;10.10;;;14.20;1.00;;;;;;5056858;28;20458;-65
2022/10/08 09:34:43;;;;;;;12.47;9.23;;;14.70;1.00;;;;;;5056396;28;20462;-64
2022/10/08 09:37:20;;;;;;;16.47;11.10;;;14.60;1.00;;;;;;5056021;28;20466;-64
2022/10/08 09:40:18;;;;;;;16.47;10.57;;;15.20;1.00;;;;;;5055820;28;20880;-64
2022/10/08 09:43:10;;;;;;;16.63;9.10;;;15.50;99.90;;;;;;5052251;28;20817;-64
2022/10/08 09:45:40;;;;;;;20.40;9.10;;;15.90;99.90;;;;;;5054642;28;20451;-65
2022/10/08 09:48:31;;;;;;;10.90;9.77;;;15.70;99.90;;;;;;5055256;28;20517;-64
2022/10/08 09:51:04;;;;;;;12.37;9.80;;;15.10;99.90;;;;;;5034722;28;20445;-64
2022/10/08 09:53:44;;;;;;;12.60;10.20;;;14.70;99.90;;;;;;5055477;28;20451;-63
2022/10/08 09:56:13;;;;;;;14.67;10.37;;;14.20;99.90;;;;;;5057523;28;20434;-63
2022/10/08 09:58:51;;;;;;;12.10;10.50;;;14.10;99.90;;;;;;5058205;28;20494;-64
2022/10/08 10:01:19;;;;;;;13.23;10.20;;;13.90;99.90;;;;;;5057655;28;20464;-64
2022/10/08 10:03:53;;;;;;;16.10;10.30;;;13.80;99.90;;;;;;5059561;28;20777;-64
2022/10/08 10:06:28;;;;;;;15.97;10.93;;;13.80;99.90;;;;;;5059288;28;20460;-64
2022/10/08 10:09:02;;;;;;;13.63;10.83;;;13.70;99.90;;;;;;5057707;28;20450;-63
2022/10/08 10:11:37;;;;;;;14.20;7.90;;;13.70;99.90;;;;;;5057114;28;20548;-63
2022/10/08 10:14:13;;;;;;;14.57;7.70;;;13.90;99.90;;;;;;5059327;28;20485;-63
2022/10/08 10:16:47;;;;;;;9.03;6.60;;;14.40;99.90;;;;;;5059797;28;20444;-63
2022/10/08 10:19:22;;;;;;;13.63;7.00;;;15.10;99.90;;;;;;5060076;28;20596;-63
2022/10/08 10:21:56;;;;;;;11.13;6.77;;;15.10;99.90;;;;;;5060030;28;20440;-63
2022/10/08 10:24:55;;;;;;;12.60;6.70;;;15.40;99.90;;;;;;5059285;28;20819;-63
2022/10/08 10:27:31;;;;;;;8.87;6.10;;;15.80;99.90;;;;;;5051895;28;20474;-64
2022/10/08 10:30:18;;;;;;;6.20;5.03;;;16.00;99.90;;;;;;5059845;28;20953;-64
2022/10/08 10:32:50;;;;;;;11.60;6.37;;;16.00;99.90;;;;;;5059483;28;20465;-64
2022/10/08 10:35:23;;;;;;;13.93;5.37;;;16.70;99.90;;;;;;5060029;28;20468;-64
2022/10/08 10:37:58;;;;;;;6.80;5.20;;;17.30;99.90;;;;;;5059265;28;20490;-67
2022/10/08 10:40:36;;;;;;;11.17;5.00;;;17.10;99.90;;;;;;5059250;28;20760;-65
2022/10/08 10:43:32;;;;;;;9.40;5.00;;;17.10;99.90;;;;;;5059961;28;20497;-64
2022/10/08 10:46:18;;;;;;;6.37;4.10;;;17.30;99.90;;;;;;5059787;28;20462;-67
2022/10/08 10:48:45;;;;;;;8.30;4.97;;;16.90;99.90;;;;;;5058760;28;20478;-64
2022/10/08 10:51:23;;;;;;;7.20;4.10;;;16.60;99.90;;;;;;5058060;28;20939;-65
2022/10/08 10:54:06;;;;;;;7.87;4.10;;;16.10;99.90;;;;;;5057053;28;20453;-63
2022/10/08 10:56:41;;;;;;;7.10;3.83;;;15.60;99.90;;;;;;5057476;28;20458;-63
2022/10/08 10:59:19;;;;;;;8.77;4.60;;;15.20;99.90;;;;;;5056689;28;20496;-64
2022/10/08 11:01:58;;;;;;;8.33;4.70;;;14.80;99.90;;;;;;5057466;28;20837;-63
2022/10/08 11:04:44;;;;;;;7.23;3.40;;;14.90;99.90;;;;;;5056709;28;20779;-64
2022/10/08 11:07:36;;;;;;;7.83;4.20;;;15.40;99.90;;;;;;5057420;28;20458;-61
2022/10/08 11:10:09;;;;;;;6.50;4.40;;;15.30;99.90;;;;;;5055566;28;20796;-63
2022/10/08 11:12:44;;;;;;;6.10;4.07;;;15.20;99.90;;;;;;5056996;28;20789;-63
2022/10/08 11:15:32;;;;;;;8.80;4.80;;;15.50;99.90;;;;;;5057625;28;20463;-64
2022/10/08 11:18:25;;;;;;;7.20;3.73;;;15.60;99.90;;;;;;5055126;28;20483;-64
2022/10/08 11:21:09;;;;;;;5.80;3.53;;;15.40;99.90;;;;;;5055277;28;20470;-64
2022/10/08 11:23:50;;;;;;;7.10;4.13;;;15.00;99.90;;;;;;5057191;28;20446;-64
2022/10/08 11:26:25;;;;;;;9.00;6.30;;;14.70;99.90;;;;;;5057202;28;20461;-63
2022/10/08 11:29:05;;;;;;;8.90;5.40;;;14.70;99.90;;;;;;5056639;28;20825;-64
2022/10/08 11:31:41;;;;;;;8.30;3.53;;;14.70;99.90;;;;;;5056209;28;20458;-64
2022/10/08 11:34:27;;;;;;;7.10;4.80;;;14.60;99.90;;;;;;5057736;28;20524;-63
2022/10/08 11:37:08;;;;;;;5.60;3.67;;;14.50;99.90;;;;;;5056849;28;20891;-65
2022/10/08 11:39:44;;;;;;;5.10;3.10;;;15.00;99.90;;;;;;5056248;28;20989;-61
2022/10/08 11:42:19;;;;;;;5.20;3.20;;;15.50;99.90;;;;;;5056553;28;20454;-63
2022/10/08 11:44:46;;;;;;;6.87;3.10;;;16.20;99.90;;;;;;5057462;28;20454;-63
2022/10/08 11:47:53;;;;;;;4.63;2.40;;;16.60;99.90;;;;;;5058104;28;20462;-65
2022/10/08 11:50:29;;;;;;;5.67;2.50;;;17.00;99.90;;;;;;5058595;28;20866;-64
2022/10/08 11:53:13;;;;;;;6.87;3.17;;;17.00;99.90;;;;;;5058540;28;20890;-64
2022/10/08 11:55:48;;;;;;;5.07;3.53;;;17.80;99.90;;;;;;5058113;28;20454;-64
2022/10/08 11:58:22;;;;;;;3.30;2.43;;;18.50;99.90;;;;;;5057855;28;20922;-64
2022/10/08 12:01:00;;;;;;;5.00;2.90;;;18.90;99.90;;;;;;5058163;28;20783;-66
2022/10/08 12:03:30;;;;;;;6.93;3.57;;;18.50;99.90;;;;;;5058220;28;20468;-64
2022/10/08 12:06:12;;;;;;;5.53;2.73;;;18.30;99.90;;;;;;5058132;28;20462;-65
2022/10/08 12:08:55;;;;;;;6.50;2.93;;;18.50;99.90;;;;;;5057826;28;20508;-64
2022/10/08 12:12:02;;;;;;;4.00;2.97;;;18.20;99.90;;;;;;5058010;28;20462;-65
2022/10/08 12:14:46;;;;;;;4.77;2.33;;;18.20;99.90;;;;;;5057643;28;20553;-64
2022/10/08 12:17:15;;;;;;;5.40;2.70;;;18.40;99.90;;;;;;5057936;28;20482;-65
2022/10/08 12:20:13;;;;;;;6.20;3.00;;;18.50;99.90;;;;;;5057274;28;20537;-64
2022/10/08 12:22:59;;;;;;;4.43;2.63;;;18.90;99.90;;;;;;5057487;28;20462;-65
2022/10/08 12:25:35;;;;;;;4.67;2.83;;;18.70;99.90;;;;;;5057419;28;20457;-64
2022/10/08 12:28:46;;;;;;;5.00;3.10;;;18.70;99.90;;;;;;5057891;28;20457;-64
2022/10/08 12:31:27;;;;;;;4.27;2.57;;;18.60;99.90;;;;;;5057325;28;20502;-64
2022/10/08 12:33:59;;;;;;;11.40;2.97;;;18.40;99.90;;;;;;5057439;28;20465;-64
2022/10/08 12:36:46;;;;;;;4.83;2.80;;;18.40;99.90;;;;;;5057790;28;20767;-64
2022/10/08 12:39:23;;;;;;;5.87;2.60;;;18.60;99.90;;;;;;5056107;28;20468;-64
2022/10/08 12:41:59;;;;;;;5.07;2.70;;;17.80;99.90;;;;;;5056724;28;20436;-63
2022/10/08 12:44:36;;;;;;;4.90;2.20;;;18.10;99.90;;;;;;5056427;28;20447;-65
2022/10/08 12:47:13;;;;;;;4.30;2.33;;;18.60;99.90;;;;;;5056176;28;20458;-64
2022/10/08 12:49:47;;;;;;;6.00;3.17;;;18.50;99.90;;;;;;5056842;28;20487;-64
2022/10/08 12:52:15;;;;;;;6.33;2.40;;;18.70;99.90;;;;;;5056392;28;20903;-64
2022/10/08 12:54:49;;;;;;;7.33;2.93;;;18.70;99.90;;;;;;5057017;28;20468;-63
2022/10/08 12:57:21;;;;;;;4.97;2.73;;;19.30;99.90;;;;;;5056747;28;20458;-64
2022/10/08 12:59:49;;;;;;;3.60;2.10;;;19.50;99.90;;;;;;5055971;28;20543;-64
2022/10/08 13:02:36;;;;;;;9.73;2.80;;;19.00;99.90;;;;;;5055390;28;20458;-64
2022/10/08 13:05:05;;;;;;;2.67;2.00;;;19.20;99.90;;;;;;5055083;28;20462;-64
2022/10/08 13:07:34;;;;;;;4.70;2.40;;;18.50;99.90;;;;;;5055724;28;20458;-64
2022/10/08 13:10:25;;;;;;;3.00;2.10;;;18.90;99.90;;;;;;5055136;28;20929;-64
2022/10/08 13:13:03;;;;;;;6.13;2.10;;;18.80;99.90;;;;;;5053219;28;20457;-64